createdAt,value
2023-04-10T00:00:04.333Z,8.1
2023-04-10T00:01:05.364Z,8.1
2023-04-10T00:02:06.340Z,8
2023-04-10T00:03:07.420Z,7.9
2023-04-10T00:04:08.499Z,7.9
2023-04-10T00:05:09.401Z,8
2023-04-10T00:06:10.324Z,8
2023-04-10T00:07:11.364Z,8
2023-04-10T00:08:12.277Z,8
2023-04-10T00:09:13.306Z,8.1
2023-04-10T00:10:14.321Z,8.1
2023-04-10T00:11:15.319Z,8.1
2023-04-10T00:12:16.358Z,8.1
2023-04-10T00:13:17.299Z,8
2023-04-10T00:14:18.319Z,8
2023-04-10T00:15:19.365Z,8
2023-04-10T00:16:20.304Z,8
2023-04-10T00:17:21.397Z,8
2023-04-10T00:18:22.298Z,8.1
2023-04-10T00:19:23.320Z,8.1
2023-04-10T00:20:24.297Z,8.1
2023-04-10T00:21:25.298Z,8.2
2023-04-10T00:22:26.423Z,8.2
2023-04-10T00:23:27.353Z,8.2
2023-04-10T00:24:28.318Z,8.2
2023-04-10T00:25:29.317Z,8.2
2023-04-10T00:26:30.358Z,8.3
2023-04-10T00:27:31.338Z,8.3
2023-04-10T00:28:32.346Z,8.2
2023-04-10T00:29:33.387Z,8.2
2023-04-10T00:30:34.380Z,8.2
2023-04-10T00:31:35.427Z,8.2
2023-04-10T00:32:36.427Z,8.2
2023-04-10T00:33:37.339Z,8.1
2023-04-10T00:34:38.420Z,8.1
2023-04-10T00:35:39.361Z,8.1
2023-04-10T00:36:40.839Z,8.1
2023-04-10T00:37:42.341Z,8.1
2023-04-10T00:38:43.309Z,8
2023-04-10T00:39:44.278Z,7.9
2023-04-10T00:40:45.302Z,7.8
2023-04-10T00:41:46.330Z,7.7
2023-04-10T00:42:47.319Z,7.7
2023-04-10T00:43:48.300Z,7.7
2023-04-10T00:44:49.309Z,7.7
2023-04-10T00:45:50.894Z,7.7
2023-04-10T00:46:51.321Z,7.7
2023-04-10T00:47:52.339Z,7.7
2023-04-10T00:48:53.279Z,7.7
2023-04-10T00:49:54.341Z,7.7
2023-04-10T00:50:55.280Z,7.6
2023-04-10T00:51:58.303Z,7.6
2023-04-10T00:52:57.396Z,7.5
2023-04-10T00:53:58.300Z,7.5
2023-04-10T00:54:59.345Z,7.5
2023-04-10T00:56:00.321Z,7.5
2023-04-10T00:57:01.321Z,7.5
2023-04-10T00:58:02.323Z,7.5
2023-04-10T00:59:04.705Z,7.5
2023-04-10T01:00:04.362Z,7.5
2023-04-10T01:01:05.317Z,7.4
2023-04-10T01:02:06.316Z,7.4
2023-04-10T01:03:07.421Z,7.3
2023-04-10T01:04:08.431Z,7.2
2023-04-10T01:05:09.319Z,7.2
2023-04-10T01:06:10.274Z,7
2023-04-10T01:07:11.327Z,7
2023-04-10T01:08:12.344Z,7
2023-04-10T01:09:13.339Z,7
2023-04-10T01:10:14.320Z,7.1
2023-04-10T01:11:15.320Z,7.1
2023-04-10T01:12:16.285Z,7.1
2023-04-10T01:13:17.346Z,7.2
2023-04-10T01:14:18.300Z,7.2
2023-04-10T01:15:19.337Z,7.2
2023-04-10T01:16:20.365Z,7.1
2023-04-10T01:17:21.822Z,7.2
2023-04-10T01:18:22.317Z,7.2
2023-04-10T01:19:23.318Z,7.2
2023-04-10T01:20:25.363Z,7.1
2023-04-10T01:21:26.380Z,7.1
2023-04-10T01:22:27.338Z,7.1
2023-04-10T01:23:28.361Z,7.1
2023-04-10T01:24:29.403Z,7
2023-04-10T01:25:30.575Z,6.9
2023-04-10T01:26:32.406Z,6.9
2023-04-10T01:27:33.397Z,6.9
2023-04-10T01:28:34.316Z,6.9
2023-04-10T01:29:35.343Z,6.9
2023-04-10T01:30:36.494Z,6.8
2023-04-10T01:31:37.415Z,6.8
2023-04-10T01:32:38.350Z,6.8
2023-04-10T01:33:39.377Z,6.9
2023-04-10T01:34:40.503Z,6.9
2023-04-10T01:35:41.556Z,6.9
2023-04-10T01:36:42.359Z,6.9
2023-04-10T01:37:43.357Z,6.9
2023-04-10T01:38:44.356Z,6.9
2023-04-10T01:39:45.366Z,6.8
2023-04-10T01:40:46.407Z,6.8
2023-04-10T01:41:47.420Z,6.8
2023-04-10T01:42:48.322Z,6.8
2023-04-10T01:43:49.348Z,6.8
2023-04-10T01:44:50.358Z,6.7
2023-04-10T01:45:51.448Z,6.6
2023-04-10T01:46:52.350Z,6.6
2023-04-10T01:47:53.356Z,6.6
2023-04-10T01:48:54.327Z,6.6
2023-04-10T01:49:55.340Z,6.6
2023-04-10T01:50:56.360Z,6.6
2023-04-10T01:51:57.361Z,6.6
2023-04-10T01:52:58.384Z,6.6
2023-04-10T01:53:59.364Z,6.6
2023-04-10T01:55:00.348Z,6.7
2023-04-10T01:56:01.424Z,6.7
2023-04-10T01:57:02.391Z,6.7
2023-04-10T01:58:03.430Z,6.7
2023-04-10T01:59:04.381Z,6.7
2023-04-10T02:00:05.423Z,6.6
2023-04-10T02:01:06.509Z,6.6
2023-04-10T02:02:07.434Z,6.5
2023-04-10T02:03:09.206Z,6.4
2023-04-10T02:04:10.484Z,6.3
2023-04-10T02:05:11.367Z,6.2
2023-04-10T02:06:12.336Z,6.2
2023-04-10T02:07:13.349Z,6.1
2023-04-10T02:08:14.375Z,6.1
2023-04-10T02:09:15.406Z,6
2023-04-10T02:10:19.383Z,5.9
2023-04-10T02:11:20.420Z,5.9
2023-04-10T02:12:21.426Z,5.9
2023-04-10T02:13:22.498Z,5.9
2023-04-10T02:14:24.393Z,5.9
2023-04-10T02:15:25.421Z,5.9
2023-04-10T02:16:27.538Z,5.9
2023-04-10T02:17:28.417Z,5.9
2023-04-10T02:18:29.402Z,5.9
2023-04-10T02:19:31.429Z,5.9
2023-04-10T02:20:32.444Z,6
2023-04-10T02:21:33.479Z,6
2023-04-10T02:22:34.408Z,6
2023-04-10T02:23:35.401Z,6.1
2023-04-10T02:24:36.444Z,6.1
2023-04-10T02:25:37.453Z,6.1
2023-04-10T02:26:38.398Z,6
2023-04-10T02:27:39.401Z,5.9
2023-04-10T02:28:40.421Z,5.8
2023-04-10T02:29:41.408Z,5.9
2023-04-10T02:30:42.431Z,5.9
2023-04-10T02:31:43.456Z,5.9
2023-04-10T02:32:44.383Z,5.9
2023-04-10T02:33:45.400Z,5.9
2023-04-10T02:34:46.420Z,5.9
2023-04-10T02:35:47.497Z,6
2023-04-10T02:36:48.421Z,6
2023-04-10T02:37:49.420Z,6
2023-04-10T02:38:50.401Z,6
2023-04-10T02:39:51.512Z,6
2023-04-10T02:40:52.439Z,6
2023-04-10T02:41:53.422Z,5.9
2023-04-10T02:42:54.440Z,5.9
2023-04-10T02:43:55.480Z,5.9
2023-04-10T02:44:56.427Z,5.9
2023-04-10T02:45:57.428Z,5.9
2023-04-10T02:46:58.552Z,5.9
2023-04-10T02:47:59.446Z,5.9
2023-04-10T02:49:00.441Z,5.9
2023-04-10T02:50:01.492Z,5.9
2023-04-10T02:51:02.405Z,5.7
2023-04-10T02:52:03.459Z,5.7
2023-04-10T02:53:04.446Z,5.6
2023-04-10T02:54:05.442Z,5.6
2023-04-10T02:55:06.457Z,5.6
2023-04-10T02:56:07.485Z,5.5
2023-04-10T02:57:08.425Z,5.3
2023-04-10T02:58:09.420Z,5.3
2023-04-10T02:59:10.395Z,5.4
2023-04-10T03:00:11.400Z,5.5
2023-04-10T03:01:12.502Z,5.5
2023-04-10T03:02:13.537Z,5.5
2023-04-10T03:03:14.549Z,5.5
2023-04-10T03:04:16.576Z,5.5
2023-04-10T03:05:17.443Z,5.6
2023-04-10T03:06:18.469Z,5.7
2023-04-10T03:07:19.420Z,5.7
2023-04-10T03:08:20.420Z,5.8
2023-04-10T03:09:21.441Z,5.8
2023-04-10T03:10:22.491Z,5.8
2023-04-10T03:11:24.078Z,5.9
2023-04-10T03:12:25.445Z,5.9
2023-04-10T03:13:26.437Z,5.8
2023-04-10T03:14:27.442Z,5.7
2023-04-10T03:15:28.442Z,5.7
2023-04-10T03:16:29.523Z,5.6
2023-04-10T03:17:31.487Z,5.5
2023-04-10T03:18:33.489Z,5.5
2023-04-10T03:19:34.443Z,5.6
2023-04-10T03:20:35.424Z,5.6
2023-04-10T03:21:36.464Z,5.6
2023-04-10T03:22:37.442Z,5.6
2023-04-10T03:23:38.420Z,5.6
2023-04-10T03:24:39.440Z,5.5
2023-04-10T03:25:40.467Z,5.5
2023-04-10T03:26:41.460Z,5.5
2023-04-10T03:27:42.499Z,5.5
2023-04-10T03:28:43.464Z,5.5
2023-04-10T03:29:44.439Z,5.6
2023-04-10T03:30:45.439Z,5.6
2023-04-10T03:31:47.489Z,5.6
2023-04-10T03:32:48.539Z,5.7
2023-04-10T03:33:49.457Z,5.7
2023-04-10T03:34:50.412Z,5.8
2023-04-10T03:35:51.566Z,5.8
2023-04-10T03:36:52.779Z,5.8
2023-04-10T03:37:54.489Z,5.8
2023-04-10T03:38:56.469Z,5.9
2023-04-10T03:39:57.569Z,5.8
2023-04-10T03:40:58.466Z,5.8
2023-04-10T03:41:59.463Z,5.7
2023-04-10T03:43:01.519Z,5.8
2023-04-10T03:44:03.443Z,5.9
2023-04-10T03:45:05.540Z,5.9
2023-04-10T03:46:06.466Z,5.9
2023-04-10T03:47:07.466Z,5.9
2023-04-10T03:48:08.611Z,5.9
2023-04-10T03:49:10.799Z,5.8
2023-04-10T03:50:12.442Z,5.7
2023-04-10T03:51:13.442Z,5.6
2023-04-10T03:52:14.519Z,5.5
2023-04-10T03:53:15.446Z,5.6
2023-04-10T03:54:16.455Z,5.6
2023-04-10T03:55:17.438Z,5.6
2023-04-10T03:56:18.453Z,5.6
2023-04-10T03:57:19.541Z,5.7
2023-04-10T03:58:20.712Z,5.7
2023-04-10T03:59:24.241Z,5.8
2023-04-10T04:00:22.419Z,5.7
2023-04-10T04:01:23.420Z,5.7
2023-04-10T04:02:24.626Z,5.7
2023-04-10T04:03:25.628Z,5.8
2023-04-10T04:04:26.501Z,5.8
2023-04-10T04:05:27.439Z,5.9
2023-04-10T04:06:28.526Z,5.8
2023-04-10T04:07:29.445Z,5.8
2023-04-10T04:08:30.418Z,5.8
2023-04-10T04:09:31.463Z,5.8
2023-04-10T04:10:32.437Z,5.8
2023-04-10T04:11:33.483Z,5.8
2023-04-10T04:12:34.437Z,5.8
2023-04-10T04:13:35.466Z,5.9
2023-04-10T04:14:36.397Z,5.9
2023-04-10T04:15:37.469Z,5.9
2023-04-10T04:16:38.459Z,6
2023-04-10T04:17:39.681Z,6.1
2023-04-10T04:18:40.767Z,6.1
2023-04-10T04:19:41.439Z,6.2
2023-04-10T04:20:42.402Z,6.2
2023-04-10T04:21:43.446Z,6.1
2023-04-10T04:22:44.476Z,6.1
2023-04-10T04:23:45.463Z,6
2023-04-10T04:24:46.417Z,6.1
2023-04-10T04:25:47.444Z,6.1
2023-04-10T04:26:48.479Z,6.1
2023-04-10T04:27:49.454Z,6.1
2023-04-10T04:28:50.443Z,6.1
2023-04-10T04:29:51.459Z,6.1
2023-04-10T04:30:52.459Z,6
2023-04-10T04:31:53.672Z,6
2023-04-10T04:32:54.522Z,6
2023-04-10T04:33:55.607Z,6
2023-04-10T04:34:56.484Z,6
2023-04-10T04:35:57.530Z,6
2023-04-10T04:36:58.489Z,5.9
2023-04-10T04:37:59.759Z,6
2023-04-10T04:39:01.478Z,6
2023-04-10T04:40:02.468Z,6
2023-04-10T04:41:03.439Z,6
2023-04-10T04:42:04.487Z,6
2023-04-10T04:43:05.493Z,6
2023-04-10T04:44:06.783Z,6.1
2023-04-10T04:45:09.244Z,6.1
2023-04-10T04:46:10.890Z,6.2
2023-04-10T04:47:12.640Z,6.3
2023-04-10T04:48:13.506Z,6.3
2023-04-10T04:49:14.715Z,6.4
2023-04-10T04:50:15.450Z,6.4
2023-04-10T04:51:16.448Z,6.5
2023-04-10T04:52:17.444Z,6.5
2023-04-10T04:53:18.484Z,6.6
2023-04-10T04:54:19.461Z,6.6
2023-04-10T04:55:20.484Z,6.7
2023-04-10T04:56:21.477Z,6.7
2023-04-10T04:57:22.644Z,6.7
2023-04-10T04:58:23.506Z,6.8
2023-04-10T04:59:24.441Z,6.8
2023-04-10T05:00:25.520Z,6.8
2023-04-10T05:01:27.488Z,6.8
2023-04-10T05:02:28.671Z,6.8
2023-04-10T05:03:29.551Z,6.8
2023-04-10T05:04:30.601Z,6.9
2023-04-10T05:05:32.359Z,6.9
2023-04-10T05:06:33.459Z,6.7
2023-04-10T05:07:34.478Z,6.4
2023-04-10T05:08:35.465Z,5.9
2023-04-10T05:09:36.478Z,5.6
2023-04-10T05:10:38.896Z,5.4
2023-04-10T05:11:39.456Z,5.6
2023-04-10T05:12:40.946Z,5.8
2023-04-10T05:13:41.743Z,6
2023-04-10T05:14:42.476Z,6.3
2023-04-10T05:15:43.563Z,6.5
2023-04-10T05:16:44.475Z,6.6
2023-04-10T05:17:45.505Z,6.6
2023-04-10T05:18:46.504Z,6.6
2023-04-10T05:19:47.463Z,6.5
2023-04-10T05:20:48.500Z,6.5
2023-04-10T05:21:49.467Z,6.4
2023-04-10T05:22:50.447Z,6.4
2023-04-10T05:23:51.455Z,6.4
2023-04-10T05:24:52.458Z,6.5
2023-04-10T05:25:53.915Z,6.6
2023-04-10T05:26:55.475Z,6.6
2023-04-10T05:27:56.541Z,6.6
2023-04-10T05:28:57.506Z,6.3
2023-04-10T05:29:58.455Z,6.1
2023-04-10T05:30:59.535Z,6.1
2023-04-10T05:32:00.542Z,6.1
2023-04-10T05:33:01.546Z,6.2
2023-04-10T05:34:02.815Z,6.3
2023-04-10T05:35:03.455Z,6.4
2023-04-10T05:36:04.537Z,6.6
2023-04-10T05:37:05.536Z,6.7
2023-04-10T05:38:06.540Z,6.8
2023-04-10T05:39:07.501Z,6.9
2023-04-10T05:40:08.496Z,6.9
2023-04-10T05:41:09.478Z,6.9
2023-04-10T05:42:11.659Z,6.9
2023-04-10T05:43:12.544Z,7
2023-04-10T05:44:13.526Z,7
2023-04-10T05:45:14.478Z,7.1
2023-04-10T05:46:15.516Z,7.2
2023-04-10T05:47:16.545Z,7.2
2023-04-10T05:48:17.924Z,7.3
2023-04-10T05:49:19.519Z,7.3
2023-04-10T05:50:21.539Z,7.2
2023-04-10T05:51:21.499Z,7.2
2023-04-10T05:52:22.592Z,7.2
2023-04-10T05:53:23.479Z,7.3
2023-04-10T05:54:25.076Z,7.3
2023-04-10T05:55:26.579Z,7.4
2023-04-10T05:56:27.497Z,7.5
2023-04-10T05:57:28.557Z,7.6
2023-04-10T05:58:29.569Z,7.5
2023-04-10T05:59:30.477Z,7.5
2023-04-10T06:00:31.479Z,7.5
2023-04-10T06:01:32.476Z,7.5
2023-04-10T06:02:33.722Z,7.4
2023-04-10T06:03:34.685Z,7.4
2023-04-10T06:04:35.686Z,7.4
2023-04-10T06:05:36.481Z,7.4
2023-04-10T06:06:37.506Z,7.5
2023-04-10T06:07:38.538Z,7.4
2023-04-10T06:08:39.579Z,7.5
2023-04-10T06:09:40.476Z,7.4
2023-04-10T06:10:41.655Z,7.4
2023-04-10T06:11:42.485Z,7.4
2023-04-10T06:12:44.666Z,7.5
2023-04-10T06:13:45.542Z,7.6
2023-04-10T06:14:46.475Z,7.6
2023-04-10T06:15:47.541Z,7.7
2023-04-10T06:16:48.506Z,7.8
2023-04-10T06:17:49.554Z,7.9
2023-04-10T06:18:50.495Z,7.9
2023-04-10T06:19:52.083Z,7.9
2023-04-10T06:20:53.501Z,7.9
2023-04-10T06:21:55.185Z,8.1
2023-04-10T06:22:55.623Z,8.2
2023-04-10T06:23:56.620Z,8.2
2023-04-10T06:24:57.516Z,8.3
2023-04-10T06:25:58.578Z,8.3
2023-04-10T06:26:59.524Z,8.2
2023-04-10T06:28:00.558Z,8.3
2023-04-10T06:29:01.538Z,8.3
2023-04-10T06:30:02.735Z,8.3
2023-04-10T06:31:03.624Z,8.2
2023-04-10T06:32:04.472Z,8.2
2023-04-10T06:33:05.623Z,8.3
2023-04-10T06:34:06.501Z,8.4
2023-04-10T06:35:07.498Z,8.4
2023-04-10T06:36:08.520Z,8.4
2023-04-10T06:37:09.525Z,8.4
2023-04-10T06:38:10.516Z,8.5
2023-04-10T06:39:11.519Z,8.5
2023-04-10T06:40:12.838Z,8.5
2023-04-10T06:41:13.503Z,8.6
2023-04-10T06:42:14.904Z,8.7
2023-04-10T06:43:15.620Z,8.7
2023-04-10T06:44:16.507Z,8.6
2023-04-10T06:45:17.528Z,8.4
2023-04-10T06:46:18.473Z,8.3
2023-04-10T06:47:19.527Z,8.2
2023-04-10T06:48:20.804Z,8
2023-04-10T06:49:22.456Z,7.9
2023-04-10T06:50:23.583Z,8
2023-04-10T06:51:24.639Z,8.1
2023-04-10T06:52:25.507Z,8.3
2023-04-10T06:53:26.530Z,8.4
2023-04-10T06:54:27.500Z,8.5
2023-04-10T06:55:28.501Z,8.6
2023-04-10T06:56:29.503Z,8.6
2023-04-10T06:57:30.527Z,8.7
2023-04-10T06:58:31.467Z,8.8
2023-04-10T06:59:32.736Z,8.8
2023-04-10T07:00:33.594Z,8.7
2023-04-10T07:01:34.595Z,8.7
2023-04-10T07:02:35.747Z,8.7
2023-04-10T07:03:36.504Z,8.8
2023-04-10T07:04:37.525Z,8.8
2023-04-10T07:05:40.109Z,8.8
2023-04-10T07:06:40.385Z,8.7
2023-04-10T07:07:41.552Z,8.6
2023-04-10T07:08:42.502Z,8.6
2023-04-10T07:09:43.481Z,8.7
2023-04-10T07:10:45.180Z,8.7
2023-04-10T07:11:46.609Z,8.8
2023-04-10T07:12:47.506Z,8.8
2023-04-10T07:13:49.839Z,8.8
2023-04-10T07:14:51.803Z,8.8
2023-04-10T07:15:53.577Z,8.7
2023-04-10T07:16:54.562Z,8.4
2023-04-10T07:17:55.813Z,8.3
2023-04-10T07:18:57.679Z,8.1
2023-04-10T07:19:58.567Z,8.2
2023-04-10T07:20:59.607Z,8.3
2023-04-10T07:22:00.545Z,8.4
2023-04-10T07:23:01.645Z,8.5
2023-04-10T07:24:02.495Z,8.6
2023-04-10T07:25:03.539Z,8.6
2023-04-10T07:26:04.556Z,8.7
2023-04-10T07:27:05.599Z,8.6
2023-04-10T07:28:06.578Z,8.5
2023-04-10T07:29:07.744Z,8.6
2023-04-10T07:30:08.591Z,8.6
2023-04-10T07:31:09.531Z,8.7
2023-04-10T07:32:10.712Z,8.7
2023-04-10T07:33:11.702Z,8.7
2023-04-10T07:34:12.522Z,8.7
2023-04-10T07:35:13.535Z,8.8
2023-04-10T07:36:14.670Z,8.8
2023-04-10T07:37:15.546Z,8.8
2023-04-10T07:38:16.539Z,8.8
2023-04-10T07:39:17.599Z,8.6
2023-04-10T07:40:18.581Z,8.6
2023-04-10T07:41:19.538Z,8.7
2023-04-10T07:42:20.546Z,8.7
2023-04-10T07:43:21.641Z,8.8
2023-04-10T07:44:22.506Z,8.8
2023-04-10T07:45:24.024Z,9
2023-04-10T07:46:25.599Z,8.9
2023-04-10T07:47:26.601Z,9
2023-04-10T07:48:27.545Z,9.1
2023-04-10T07:49:28.503Z,9
2023-04-10T07:50:29.572Z,8.9
2023-04-10T07:51:30.541Z,8.9
2023-04-10T07:52:31.651Z,8.9
2023-04-10T07:53:32.865Z,9.1
2023-04-10T07:54:34.542Z,9.2
2023-04-10T07:55:35.539Z,9.4
2023-04-10T07:56:36.541Z,9.5
2023-04-10T07:57:37.530Z,9.7
2023-04-10T07:58:38.532Z,9.7
2023-04-10T07:59:39.649Z,9.6
2023-04-10T08:00:40.612Z,9.5
2023-04-10T08:01:41.669Z,9.4
2023-04-10T08:02:42.561Z,9.4
2023-04-10T08:03:43.616Z,9.5
2023-04-10T08:04:44.694Z,9.6
2023-04-10T08:05:46.546Z,9.7
2023-04-10T08:06:47.803Z,9.8
2023-04-10T08:07:48.542Z,9.9
2023-04-10T08:08:49.550Z,10
2023-04-10T08:09:50.595Z,10.1
2023-04-10T08:10:51.542Z,10.2
2023-04-10T08:11:52.542Z,10.3
2023-04-10T08:12:53.537Z,10.2
2023-04-10T08:13:54.580Z,10
2023-04-10T08:14:55.559Z,9.9
2023-04-10T08:15:56.568Z,9.9
2023-04-10T08:16:57.579Z,10
2023-04-10T08:17:58.575Z,10.1
2023-04-10T08:18:59.663Z,10.3
2023-04-10T08:20:00.587Z,10.3
2023-04-10T08:21:01.807Z,10.1
2023-04-10T08:22:02.599Z,10.2
2023-04-10T08:23:16.938Z,10.4
2023-04-10T08:24:05.193Z,10.6
2023-04-10T08:25:08.147Z,10.7
2023-04-10T08:26:09.637Z,10.9
2023-04-10T08:27:10.597Z,11
2023-04-10T08:28:11.590Z,11.1
2023-04-10T08:29:12.597Z,11.1
2023-04-10T08:30:13.662Z,11
2023-04-10T08:31:15.122Z,11
2023-04-10T08:32:17.381Z,10.9
2023-04-10T08:33:18.559Z,10.8
2023-04-10T08:34:19.605Z,10.4
2023-04-10T08:35:20.561Z,10.2
2023-04-10T08:36:21.597Z,10.3
2023-04-10T08:37:22.560Z,10.4
2023-04-10T08:38:23.862Z,10.5
2023-04-10T08:39:25.577Z,10.7
2023-04-10T08:40:26.587Z,10.8
2023-04-10T08:41:27.557Z,10.8
2023-04-10T08:42:28.577Z,10.9
2023-04-10T08:43:29.580Z,10.9
2023-04-10T08:44:30.597Z,11
2023-04-10T08:45:31.540Z,11
2023-04-10T08:46:32.607Z,10.9
2023-04-10T08:47:33.553Z,10.8
2023-04-10T08:48:34.621Z,10.9
2023-04-10T08:49:35.560Z,10.9
2023-04-10T08:50:36.581Z,11
2023-04-10T08:51:37.655Z,11.2
2023-04-10T08:52:38.610Z,11.4
2023-04-10T08:53:39.577Z,11.6
2023-04-10T08:54:41.025Z,11.6
2023-04-10T08:55:42.638Z,11.7
2023-04-10T08:56:43.580Z,11.8
2023-04-10T08:57:48.118Z,12
2023-04-10T08:58:45.620Z,12
2023-04-10T08:59:46.602Z,11.9
2023-04-10T09:00:47.585Z,11.8
2023-04-10T09:01:48.673Z,11.9
2023-04-10T09:02:49.670Z,11.9
2023-04-10T09:03:50.687Z,12.1
2023-04-10T09:04:51.674Z,12.2
2023-04-10T09:05:52.576Z,12.3
2023-04-10T09:06:53.620Z,12.5
2023-04-10T09:07:54.584Z,12.6
2023-04-10T09:08:55.600Z,12.7
2023-04-10T09:09:56.566Z,12.9
2023-04-10T09:10:57.593Z,12.9
2023-04-10T09:11:59.047Z,13
2023-04-10T09:13:00.824Z,13.1
2023-04-10T09:14:01.753Z,13.2
2023-04-10T09:15:02.613Z,13.3
2023-04-10T09:16:03.656Z,13.4
2023-04-10T09:17:04.982Z,13.4
2023-04-10T09:18:06.631Z,13.4
2023-04-10T09:19:07.765Z,13.4
2023-04-10T09:20:08.594Z,13.4
2023-04-10T09:21:09.583Z,13.4
2023-04-10T09:22:10.551Z,13
2023-04-10T09:23:11.659Z,12.6
2023-04-10T09:24:12.613Z,12.4
2023-04-10T09:25:13.582Z,12.3
2023-04-10T09:26:14.598Z,12.3
2023-04-10T09:27:15.563Z,12.3
2023-04-10T09:28:16.602Z,12.4
2023-04-10T09:29:17.674Z,12.4
2023-04-10T09:30:18.939Z,12.5
2023-04-10T09:31:19.622Z,12.6
2023-04-10T09:32:20.617Z,12.6
2023-04-10T09:33:21.844Z,12.6
2023-04-10T09:34:23.954Z,12.6
2023-04-10T09:35:25.571Z,12.7
2023-04-10T09:36:26.634Z,12.7
2023-04-10T09:37:27.665Z,12.8
2023-04-10T09:38:28.655Z,12.9
2023-04-10T09:39:29.595Z,13
2023-04-10T09:40:30.615Z,13
2023-04-10T09:41:31.638Z,13.1
2023-04-10T09:42:32.662Z,13.2
2023-04-10T09:43:33.678Z,13.3
2023-04-10T09:44:34.635Z,13.5
2023-04-10T09:45:35.635Z,13.5
2023-04-10T09:46:36.640Z,13.6
2023-04-10T09:47:37.816Z,13.7
2023-04-10T09:48:38.616Z,13.7
2023-04-10T09:49:39.592Z,13.6
2023-04-10T09:50:40.665Z,13.6
2023-04-10T09:51:41.637Z,13.5
2023-04-10T09:52:42.634Z,13.4
2023-04-10T09:53:43.635Z,13.5
2023-04-10T09:54:44.918Z,13.6
2023-04-10T09:55:46.595Z,13.7
2023-04-10T09:56:47.560Z,13.6
2023-04-10T09:57:48.655Z,13.5
2023-04-10T09:58:49.616Z,13.3
2023-04-10T09:59:50.614Z,13.3
2023-04-10T10:00:51.635Z,13.2
2023-04-10T10:01:52.708Z,13.2
2023-04-10T10:02:53.835Z,13.2
2023-04-10T10:03:55.646Z,13.1
2023-04-10T10:04:56.649Z,13.2
2023-04-10T10:05:57.635Z,13.3
2023-04-10T10:06:58.596Z,13.4
2023-04-10T10:07:59.657Z,13.5
2023-04-10T10:09:00.695Z,13.6
2023-04-10T10:10:01.663Z,13.7
2023-04-10T10:11:02.576Z,13.8
2023-04-10T10:12:03.634Z,13.8
2023-04-10T10:13:04.699Z,13.7
2023-04-10T10:14:05.602Z,13.8
2023-04-10T10:15:06.615Z,13.9
2023-04-10T10:16:07.592Z,14.1
2023-04-10T10:17:08.614Z,14.2
2023-04-10T10:18:09.640Z,14.2
2023-04-10T10:19:10.579Z,14.2
2023-04-10T10:20:11.640Z,14.4
2023-04-10T10:21:12.575Z,14.6
2023-04-10T10:22:13.578Z,14.7
2023-04-10T10:23:14.960Z,14.6
2023-04-10T10:24:15.670Z,14.5
2023-04-10T10:25:16.618Z,14.3
2023-04-10T10:26:17.641Z,14.2
2023-04-10T10:27:18.670Z,14.1
2023-04-10T10:28:19.638Z,14.1
2023-04-10T10:29:20.638Z,14
2023-04-10T10:30:29.233Z,13.9
2023-04-10T10:31:22.605Z,13.9
2023-04-10T10:32:23.991Z,14
2023-04-10T10:33:25.663Z,14
2023-04-10T10:34:26.660Z,14.2
2023-04-10T10:35:29.486Z,14.4
2023-04-10T10:36:28.680Z,14.7
2023-04-10T10:37:29.686Z,14.8
2023-04-10T10:38:30.582Z,14.9
2023-04-10T10:39:31.710Z,14.9
2023-04-10T10:40:32.698Z,15
2023-04-10T10:41:33.591Z,15.1
2023-04-10T10:42:34.630Z,15.4
2023-04-10T10:43:35.950Z,15.5
2023-04-10T10:44:37.729Z,15.5
2023-04-10T10:45:38.650Z,15.4
2023-04-10T10:46:39.621Z,15.4
2023-04-10T10:47:41.128Z,15.5
2023-04-10T10:48:41.648Z,15.6
2023-04-10T10:49:42.662Z,15.7
2023-04-10T10:50:43.628Z,15.7
2023-04-10T10:51:44.625Z,15.8
2023-04-10T10:52:45.599Z,15.7
2023-04-10T10:53:46.641Z,15.6
2023-04-10T10:54:57.229Z,15.5
2023-04-10T10:55:48.642Z,15.4
2023-04-10T10:56:50.009Z,15.4
2023-04-10T10:57:50.644Z,15.5
2023-04-10T10:58:51.702Z,15.4
2023-04-10T10:59:52.941Z,15.3
2023-04-10T11:00:54.668Z,15.4
2023-04-10T11:01:56.892Z,15.4
2023-04-10T11:02:57.840Z,15.5
2023-04-10T11:03:58.797Z,15.7
2023-04-10T11:04:59.679Z,15.9
2023-04-10T11:06:00.732Z,16.1
2023-04-10T11:07:01.665Z,16.3
2023-04-10T11:08:02.614Z,16.5
2023-04-10T11:09:03.743Z,16.6
2023-04-10T11:10:04.685Z,16.8
2023-04-10T11:11:05.697Z,16.9
2023-04-10T11:12:06.770Z,17
2023-04-10T11:13:07.671Z,17.1
2023-04-10T11:14:08.922Z,17.4
2023-04-10T11:15:09.705Z,17.7
2023-04-10T11:16:11.127Z,17.9
2023-04-10T11:17:12.777Z,18
2023-04-10T11:18:13.646Z,18.1
2023-04-10T11:19:16.338Z,17.9
2023-04-10T11:20:15.643Z,17.8
2023-04-10T11:21:17.189Z,17.8
2023-04-10T11:22:18.944Z,17.9
2023-04-10T11:23:19.643Z,17.8
2023-04-10T11:24:20.665Z,17.9
2023-04-10T11:25:21.766Z,17.9
2023-04-10T11:26:22.607Z,18
2023-04-10T11:27:23.641Z,18
2023-04-10T11:28:24.606Z,18
2023-04-10T11:29:25.643Z,17.9
2023-04-10T11:30:26.659Z,17.9
2023-04-10T11:31:27.643Z,18
2023-04-10T11:32:28.747Z,18
2023-04-10T11:33:29.778Z,18.1
2023-04-10T11:34:30.886Z,17.9
2023-04-10T11:35:31.901Z,17.7
2023-04-10T11:36:32.823Z,17.5
2023-04-10T11:37:33.656Z,17.4
2023-04-10T11:38:34.790Z,17.5
2023-04-10T11:39:35.755Z,17.3
2023-04-10T11:40:36.879Z,17.1
2023-04-10T11:41:39.221Z,16.9
2023-04-10T11:42:40.677Z,17
2023-04-10T11:43:41.679Z,17
2023-04-10T11:44:42.704Z,17.1
2023-04-10T11:45:43.665Z,17.2
2023-04-10T11:46:44.716Z,17.3
2023-04-10T11:47:45.711Z,17.2
2023-04-10T11:48:46.699Z,17.2
2023-04-10T11:49:47.701Z,17
2023-04-10T11:50:48.695Z,16.9
2023-04-10T11:51:49.736Z,16.8
2023-04-10T11:52:51.252Z,16.7
2023-04-10T11:53:52.718Z,16.8
2023-04-10T11:54:53.669Z,16.9
2023-04-10T11:55:54.664Z,17
2023-04-10T11:56:55.660Z,17.1
2023-04-10T11:57:56.701Z,17.2
2023-04-10T11:58:57.825Z,17.5
2023-04-10T11:59:58.665Z,17.7
2023-04-10T12:00:59.696Z,17.8
2023-04-10T12:02:00.675Z,17.8
2023-04-10T12:03:01.790Z,17.7
2023-04-10T12:04:02.809Z,17.7
2023-04-10T12:05:03.790Z,17.8
2023-04-10T12:06:04.654Z,18.1
2023-04-10T12:07:05.667Z,18.4
2023-04-10T12:08:07.619Z,18.6
2023-04-10T12:09:08.674Z,18.6
2023-04-10T12:10:09.715Z,18.7
2023-04-10T12:11:10.661Z,18.9
2023-04-10T12:12:11.703Z,19
2023-04-10T12:13:12.724Z,18.9
2023-04-10T12:14:13.714Z,18.9
2023-04-10T12:15:14.664Z,18.6
2023-04-10T12:16:15.819Z,18.4
2023-04-10T12:17:16.689Z,18.3
2023-04-10T12:18:17.673Z,17.9
2023-04-10T12:19:18.814Z,17.7
2023-04-10T12:20:19.740Z,17.5
2023-04-10T12:21:20.761Z,17.4
2023-04-10T12:22:21.681Z,17.3
2023-04-10T12:23:22.734Z,17.2
2023-04-10T12:24:23.873Z,17.1
2023-04-10T12:25:24.717Z,17
2023-04-10T12:26:25.675Z,16.9
2023-04-10T12:27:26.735Z,16.5
2023-04-10T12:28:27.684Z,16.3
2023-04-10T12:29:28.804Z,16.2
2023-04-10T12:30:29.677Z,16.1
2023-04-10T12:31:30.745Z,16
2023-04-10T12:32:31.759Z,16
2023-04-10T12:33:32.839Z,16.1
2023-04-10T12:34:33.739Z,16.3
2023-04-10T12:35:34.755Z,16.5
2023-04-10T12:36:35.700Z,16.6
2023-04-10T12:37:36.681Z,16.7
2023-04-10T12:38:37.768Z,16.9
2023-04-10T12:39:39.079Z,17
2023-04-10T12:40:40.982Z,17.1
2023-04-10T12:41:41.743Z,17.1
2023-04-10T12:42:42.704Z,17.2
2023-04-10T12:43:43.732Z,17.4
2023-04-10T12:44:44.681Z,17.4
2023-04-10T12:45:45.684Z,17.4
2023-04-10T12:46:46.714Z,17.4
2023-04-10T12:47:47.761Z,17.4
2023-04-10T12:48:48.988Z,17.3
2023-04-10T12:49:49.817Z,17.3
2023-04-10T12:50:50.727Z,17.1
2023-04-10T12:51:51.718Z,17
2023-04-10T12:52:52.684Z,16.9
2023-04-10T12:53:53.707Z,16.7
2023-04-10T12:54:54.758Z,16.6
2023-04-10T12:55:55.887Z,16.5
2023-04-10T12:56:56.746Z,16.4
2023-04-10T12:57:57.740Z,16.3
2023-04-10T12:58:58.687Z,16.2
2023-04-10T12:59:59.742Z,16.1
2023-04-10T13:01:01.319Z,15.9
2023-04-10T13:02:02.936Z,15.7
2023-04-10T13:03:03.908Z,15.7
2023-04-10T13:04:04.814Z,15.9
2023-04-10T13:05:05.942Z,16
2023-04-10T13:06:06.749Z,16.2
2023-04-10T13:07:07.960Z,16.3
2023-04-10T13:08:09.742Z,16.3
2023-04-10T13:09:10.747Z,16.3
2023-04-10T13:10:11.771Z,16.2
2023-04-10T13:11:12.781Z,16.3
2023-04-10T13:12:13.735Z,16.4
2023-04-10T13:13:14.717Z,16.4
2023-04-10T13:14:15.725Z,16.3
2023-04-10T13:15:17.005Z,16.3
2023-04-10T13:16:17.880Z,16.4
2023-04-10T13:17:18.799Z,16.5
2023-04-10T13:18:19.697Z,16.5
2023-04-10T13:19:20.940Z,16.4
2023-04-10T13:20:21.777Z,16.3
2023-04-10T13:21:22.715Z,16.2
2023-04-10T13:22:23.796Z,16.1
2023-04-10T13:23:24.699Z,15.8
2023-04-10T13:24:25.696Z,15.6
2023-04-10T13:25:27.022Z,15.4
2023-04-10T13:26:27.756Z,15.5
2023-04-10T13:27:28.738Z,15.5
2023-04-10T13:28:29.956Z,15.6
2023-04-10T13:29:30.720Z,15.8
2023-04-10T13:30:31.755Z,16
2023-04-10T13:31:32.730Z,16.2
2023-04-10T13:32:33.792Z,16.3
2023-04-10T13:33:34.741Z,16.4
2023-04-10T13:34:35.806Z,16.5
2023-04-10T13:35:36.716Z,16.6
2023-04-10T13:36:37.852Z,16.6
2023-04-10T13:37:38.856Z,16.6
2023-04-10T13:38:39.778Z,16.7
2023-04-10T13:39:40.739Z,16.6
2023-04-10T13:40:41.778Z,16.7
2023-04-10T13:41:43.739Z,16.7
2023-04-10T13:42:44.863Z,16.8
2023-04-10T13:43:46.750Z,17
2023-04-10T13:44:47.745Z,17.1
2023-04-10T13:45:48.799Z,17.3
2023-04-10T13:46:49.757Z,17.5
2023-04-10T13:47:50.874Z,17.6
2023-04-10T13:48:51.769Z,17.7
2023-04-10T13:49:54.543Z,17.7
2023-04-10T13:50:55.801Z,17.7
2023-04-10T13:51:56.817Z,17.4
2023-04-10T13:52:57.764Z,17.2
2023-04-10T13:53:58.854Z,16.9
2023-04-10T13:54:59.781Z,16.7